createdAt,value
2022-11-12T00:01:46.351Z,2.17
2022-11-12T00:04:31.819Z,1.95
2022-11-12T00:07:16.939Z,2.83
2022-11-12T00:10:02.302Z,2.40
2022-11-12T00:12:47.456Z,2.50
2022-11-12T00:18:18.072Z,2.17
2022-11-12T00:21:03.108Z,2.55
2022-11-12T00:23:48.299Z,2.83
2022-11-12T00:26:33.308Z,3.03
2022-11-12T00:29:18.656Z,3.03
2022-11-12T00:32:05.338Z,2.55
2022-11-12T00:34:51.344Z,2.10
2022-11-12T00:37:36.744Z,2.22
2022-11-12T00:40:21.767Z,2.67
2022-11-12T00:43:06.641Z,3.70
2022-11-12T00:45:51.950Z,2.50
2022-11-12T00:48:37.329Z,2.30
2022-11-12T00:51:23.384Z,2.25
2022-11-12T00:56:53.976Z,2.97
2022-11-12T00:59:38.939Z,4.10
2022-11-12T01:02:24.227Z,2.60
2022-11-12T01:05:09.559Z,2.55
2022-11-12T01:07:56.151Z,3.27
2022-11-12T01:10:41.522Z,2.45
2022-11-12T01:13:27.440Z,2.63
2022-11-12T01:16:22.095Z,2.97
2022-11-12T01:19:10.386Z,2.90
2022-11-12T01:21:55.441Z,3.05
2022-11-12T01:24:40.893Z,3.08
2022-11-12T01:27:25.999Z,3.38
2022-11-12T01:30:11.292Z,4.30
2022-11-12T01:32:56.906Z,3.88
2022-11-12T01:35:42.018Z,4.28
2022-11-12T01:38:27.693Z,5.18
2022-11-12T01:44:07.565Z,3.17
2022-11-12T01:47:01.582Z,3.85
2022-11-12T01:49:56.865Z,4.45
2022-11-12T01:52:49.933Z,4.90
2022-11-12T01:55:37.323Z,5.40
2022-11-12T01:58:28.006Z,3.20
2022-11-12T02:01:14.452Z,3.83
2022-11-12T02:03:59.975Z,3.45
2022-11-12T02:06:45.546Z,2.63
2022-11-12T02:09:32.190Z,4.20
2022-11-12T02:12:36.358Z,3.80
2022-11-12T02:15:21.936Z,3.80
2022-11-12T02:20:57.094Z,3.60
2022-11-12T02:23:42.550Z,3.38
2022-11-12T02:26:37.014Z,3.55
2022-11-12T02:29:22.855Z,2.58
2022-11-12T02:32:08.401Z,3.05
2022-11-12T02:34:53.457Z,3.00
2022-11-12T02:37:38.917Z,3.40
2022-11-12T02:40:24.394Z,2.35
2022-11-12T02:43:09.900Z,3.00
2022-11-12T02:45:55.398Z,2.90
2022-11-12T02:48:40.874Z,3.10
2022-11-12T02:51:26.347Z,3.00
2022-11-12T02:54:11.499Z,3.25
2022-11-12T02:56:56.985Z,2.78
2022-11-12T02:59:42.136Z,3.75
2022-11-12T03:02:27.415Z,2.92
2022-11-12T03:05:12.628Z,2.70
2022-11-12T03:07:59.726Z,2.97
2022-11-12T03:10:45.022Z,3.17
2022-11-12T03:13:30.339Z,2.47
2022-11-12T03:16:15.618Z,2.38
2022-11-12T03:19:01.034Z,3.25
2022-11-12T03:21:46.457Z,2.80
2022-11-12T03:24:31.739Z,3.10
2022-11-12T03:27:16.645Z,2.63
2022-11-12T03:30:02.036Z,2.70
2022-11-12T03:32:47.382Z,2.75
2022-11-12T03:35:33.758Z,3.30
2022-11-12T03:38:18.931Z,2.65
2022-11-12T03:41:04.449Z,2.80
2022-11-12T03:43:49.988Z,3.28
2022-11-12T03:46:36.185Z,2.92
2022-11-12T03:49:24.022Z,2.85
2022-11-12T03:52:09.398Z,2.38
2022-11-12T03:54:54.391Z,2.70
2022-11-12T03:57:39.502Z,2.72
2022-11-12T04:00:27.151Z,2.67
2022-11-12T04:03:12.395Z,2.53
2022-11-12T04:06:16.291Z,3.67
2022-11-12T04:09:01.633Z,2.70
2022-11-12T04:11:46.909Z,3.38
2022-11-12T04:14:32.119Z,2.80
2022-11-12T04:17:55.163Z,2.45
2022-11-12T04:20:59.007Z,2.80
2022-11-12T04:23:44.398Z,2.47
2022-11-12T04:26:29.498Z,2.97
2022-11-12T04:29:37.447Z,2.70
2022-11-12T04:32:23.823Z,2.75
2022-11-12T04:35:09.847Z,2.08
2022-11-12T04:37:55.236Z,3.13
2022-11-12T04:40:59.205Z,2.85
2022-11-12T04:44:03.060Z,2.63
2022-11-12T04:46:48.537Z,2.92
2022-11-12T04:49:33.818Z,3.42
2022-11-12T04:52:19.046Z,2.50
2022-11-12T04:55:05.175Z,2.75
2022-11-12T04:57:50.914Z,2.88
2022-11-12T05:00:37.301Z,2.75
2022-11-12T05:03:22.229Z,2.55
2022-11-12T05:06:26.524Z,2.10
2022-11-12T05:09:11.853Z,2.05
2022-11-12T05:11:57.391Z,2.40
2022-11-12T05:14:42.819Z,2.35
2022-11-12T05:17:28.138Z,1.95
2022-11-12T05:20:15.116Z,2.30
2022-11-12T05:23:07.947Z,2.22
2022-11-12T05:25:53.415Z,2.58
2022-11-12T05:28:38.764Z,2.05
2022-11-12T05:31:25.463Z,2.63
2022-11-12T05:34:10.872Z,2.10
2022-11-12T05:36:56.196Z,2.40
2022-11-12T05:39:41.359Z,2.20
2022-11-12T05:42:26.420Z,2.53
2022-11-12T05:45:12.984Z,1.73
2022-11-12T05:47:58.081Z,2.88
2022-11-12T05:51:06.126Z,2.92
2022-11-12T05:53:48.820Z,2.72
2022-11-12T05:56:35.050Z,2.47
2022-11-12T05:59:20.576Z,3.10
2022-11-12T06:02:05.556Z,2.45
2022-11-12T06:04:50.870Z,2.40
2022-11-12T06:07:36.336Z,2.60
2022-11-12T06:10:21.364Z,3.20
2022-11-12T06:13:07.417Z,2.40
2022-11-12T06:15:54.453Z,2.92
2022-11-12T06:18:39.539Z,2.60
2022-11-12T06:21:27.148Z,3.00
2022-11-12T06:24:12.756Z,3.53
2022-11-12T06:26:58.126Z,2.97
2022-11-12T06:29:43.629Z,2.85
2022-11-12T06:32:28.684Z,2.25
2022-11-12T06:35:14.460Z,2.50
2022-11-12T06:37:59.850Z,2.30
2022-11-12T06:40:44.883Z,2.47
2022-11-12T06:43:31.892Z,2.60
2022-11-12T06:46:17.568Z,2.42
2022-11-12T06:51:50.384Z,2.05
2022-11-12T06:54:35.563Z,2.88
2022-11-12T06:57:20.738Z,2.35
2022-11-12T07:00:06.494Z,2.72
2022-11-12T07:02:51.479Z,2.10
2022-11-12T07:05:38.371Z,2.08
2022-11-12T07:08:23.879Z,2.83
2022-11-12T07:11:09.670Z,2.20
2022-11-12T07:13:55.210Z,2.65
2022-11-12T07:16:40.368Z,2.10
2022-11-12T07:19:26.013Z,2.40
2022-11-12T07:22:11.012Z,2.38
2022-11-12T07:24:56.411Z,2.28
2022-11-12T07:27:41.735Z,2.40
2022-11-12T07:30:27.120Z,2.05
2022-11-12T07:33:12.250Z,2.10
2022-11-12T07:36:02.137Z,1.80
2022-11-12T07:38:50.236Z,1.70
2022-11-12T07:41:35.406Z,1.80
2022-11-12T07:44:20.397Z,1.70
2022-11-12T07:47:05.929Z,2.30
2022-11-12T07:49:51.143Z,2.15
2022-11-12T07:52:36.166Z,2.30
2022-11-12T07:55:21.570Z,1.70
2022-11-12T07:58:06.626Z,2.22
2022-11-12T08:00:52.387Z,2.55
2022-11-12T08:03:37.830Z,1.73
2022-11-12T08:06:23.648Z,2.42
2022-11-12T08:11:54.904Z,1.60
2022-11-12T08:14:40.364Z,2.35
2022-11-12T08:17:25.340Z,1.98
2022-11-12T08:20:11.021Z,1.48
2022-11-12T08:23:00.341Z,1.55
2022-11-12T08:25:45.763Z,1.55
2022-11-12T08:28:34.035Z,2.28
2022-11-12T08:31:22.651Z,2.33
2022-11-12T08:34:17.443Z,2.40
2022-11-12T08:37:07.402Z,2.00
2022-11-12T08:39:53.237Z,1.60
2022-11-12T08:42:38.592Z,1.60
2022-11-12T08:45:23.900Z,2.22
2022-11-12T08:48:15.101Z,2.15
2022-11-12T08:51:05.458Z,1.85
2022-11-12T08:53:50.500Z,2.13
2022-11-12T08:56:35.763Z,1.92
2022-11-12T08:59:21.063Z,1.33
2022-11-12T09:02:11.606Z,1.50
2022-11-12T09:04:56.790Z,1.55
2022-11-12T09:07:50.702Z,1.33
2022-11-12T09:10:36.950Z,1.75
2022-11-12T09:13:22.052Z,1.70
2022-11-12T09:16:08.959Z,1.70
2022-11-12T09:18:54.027Z,1.67
2022-11-12T09:21:39.233Z,1.45
2022-11-12T09:24:24.704Z,2.03
2022-11-12T09:27:10.071Z,2.00
2022-11-12T09:29:55.411Z,1.83
2022-11-12T09:32:40.447Z,2.08
2022-11-12T09:35:25.821Z,2.17
2022-11-12T09:38:11.611Z,1.63
2022-11-12T09:41:02.952Z,2.25
2022-11-12T09:43:52.161Z,2.25
2022-11-12T09:46:48.077Z,2.25
2022-11-12T09:49:38.875Z,2.03
2022-11-12T09:52:27.443Z,2.70
2022-11-12T09:55:34.232Z,3.25
2022-11-12T10:01:16.952Z,2.28
2022-11-12T10:04:27.605Z,2.85
2022-11-12T10:07:22.171Z,3.55
2022-11-12T10:10:15.507Z,3.83
2022-11-12T10:13:18.976Z,3.10
2022-11-12T10:16:47.109Z,2.67
2022-11-12T10:19:51.256Z,2.50
2022-11-12T10:22:46.047Z,2.38
2022-11-12T10:25:32.762Z,3.30
2022-11-12T10:28:27.891Z,3.05
2022-11-12T10:31:17.615Z,3.22
2022-11-12T10:34:19.283Z,3.22
2022-11-12T10:37:05.537Z,3.42
2022-11-12T10:39:51.316Z,3.88
2022-11-12T10:42:56.287Z,3.53
2022-11-12T10:45:42.380Z,3.50
2022-11-12T10:48:34.514Z,3.50
2022-11-12T10:51:27.022Z,3.20
2022-11-12T10:54:37.130Z,5.10
2022-11-12T10:57:26.837Z,3.63
2022-11-12T11:00:15.719Z,4.22
2022-11-12T11:03:03.295Z,3.78
2022-11-12T11:05:53.497Z,3.53
2022-11-12T11:08:44.874Z,2.97
2022-11-12T11:11:31.145Z,3.92
2022-11-12T11:14:22.401Z,3.40
2022-11-12T11:17:17.206Z,2.42
2022-11-12T11:20:11.019Z,2.85
2022-11-12T11:22:59.855Z,2.47
2022-11-12T11:25:51.082Z,2.70
2022-11-12T11:28:45.306Z,2.72
2022-11-12T11:31:53.037Z,2.92
2022-11-12T11:34:48.823Z,2.80
2022-11-12T11:37:59.070Z,3.40
2022-11-12T11:41:37.111Z,3.15
2022-11-12T11:44:43.322Z,4.10
2022-11-12T11:47:59.527Z,3.60
2022-11-12T11:51:20.948Z,3.13
2022-11-12T11:54:49.614Z,3.47
2022-11-12T11:57:55.362Z,3.53
2022-11-12T12:01:00.455Z,3.05
2022-11-12T12:04:22.416Z,2.88
2022-11-12T12:07:19.688Z,2.35
2022-11-12T12:13:57.918Z,2.90
2022-11-12T12:17:04.551Z,2.20
2022-11-12T12:23:00.664Z,1.88
2022-11-12T12:25:49.091Z,1.63
2022-11-12T12:28:40.079Z,1.75
2022-11-12T12:31:31.173Z,1.98
2022-11-12T12:34:26.464Z,1.92
2022-11-12T12:37:35.885Z,1.67
2022-11-12T12:40:28.996Z,2.03
2022-11-12T12:43:18.295Z,1.40
2022-11-12T12:46:05.799Z,1.60
2022-11-12T12:48:53.961Z,1.35
2022-11-12T12:51:39.437Z,1.95
2022-11-12T12:54:51.980Z,1.58
2022-11-12T12:57:39.352Z,1.52
2022-11-12T13:00:40.872Z,0.98
2022-11-12T13:03:51.736Z,1.48
2022-11-12T13:06:46.472Z,1.08
2022-11-12T13:09:33.152Z,1.60
2022-11-12T13:12:18.626Z,2.38
2022-11-12T13:15:15.914Z,2.30
2022-11-12T13:18:01.345Z,2.42
2022-11-12T13:21:10.929Z,2.47
2022-11-12T13:24:07.807Z,2.60
2022-11-12T13:26:55.979Z,2.70
2022-11-12T13:29:42.781Z,2.40
2022-11-12T13:32:29.580Z,3.13
2022-11-12T13:35:22.041Z,2.65
2022-11-12T13:38:13.321Z,2.08
2022-11-12T13:41:10.939Z,2.40
2022-11-12T13:43:56.907Z,2.30
2022-11-12T13:46:44.201Z,1.90
2022-11-12T13:49:30.136Z,2.83
2022-11-12T13:52:16.070Z,1.70
2022-11-12T13:55:04.243Z,2.40
2022-11-12T13:57:54.166Z,2.20
2022-11-12T14:00:39.498Z,2.80
2022-11-12T14:03:28.783Z,2.28
2022-11-12T14:06:24.734Z,2.70
2022-11-12T14:09:47.657Z,2.30
2022-11-12T14:13:09.106Z,2.75
2022-11-12T14:16:24.738Z,2.90
2022-11-12T14:19:26.032Z,2.25
2022-11-12T14:22:16.554Z,2.67
2022-11-12T14:25:03.430Z,1.90
2022-11-12T14:27:55.609Z,2.58
2022-11-12T14:30:44.845Z,2.55
2022-11-12T14:33:32.361Z,2.47
2022-11-12T14:36:21.764Z,2.50
2022-11-12T14:39:07.232Z,2.72
2022-11-12T14:41:54.407Z,2.17
2022-11-12T14:44:39.540Z,2.33
2022-11-12T14:47:24.929Z,2.33
2022-11-12T14:50:40.199Z,2.33
2022-11-12T14:53:46.610Z,1.88
2022-11-12T14:56:35.959Z,2.13
2022-11-12T14:59:22.009Z,2.40
2022-11-12T15:05:23.554Z,2.08
2022-11-12T15:08:12.052Z,1.95
2022-11-12T15:11:22.015Z,1.90
2022-11-12T15:14:19.689Z,2.25
2022-11-12T15:17:05.952Z,2.60
2022-11-12T15:19:51.281Z,2.28
2022-11-12T15:22:36.377Z,2.47
2022-11-12T15:25:23.876Z,2.38
2022-11-12T15:28:27.653Z,2.67
2022-11-12T15:31:19.484Z,2.67
2022-11-12T15:34:28.643Z,1.92
2022-11-12T15:37:22.908Z,1.88
2022-11-12T15:40:19.822Z,2.75
2022-11-12T15:43:15.894Z,2.83
2022-11-12T15:46:01.873Z,2.60
2022-11-12T15:48:51.392Z,2.55
2022-11-12T15:51:38.112Z,2.90
2022-11-12T15:54:23.444Z,2.60
2022-11-12T15:57:14.319Z,2.85
2022-11-12T16:00:15.459Z,3.00
2022-11-12T16:03:15.942Z,3.95
2022-11-12T16:06:05.692Z,3.00
2022-11-12T16:08:53.502Z,3.00
2022-11-12T16:11:39.237Z,2.50
2022-11-12T16:14:25.237Z,3.13
2022-11-12T16:17:16.441Z,3.80
2022-11-12T16:20:01.956Z,3.75
2022-11-12T16:22:48.579Z,3.65
2022-11-12T16:25:36.080Z,4.20
2022-11-12T16:28:21.604Z,3.42
2022-11-12T16:31:06.704Z,3.60
2022-11-12T16:33:52.266Z,3.65
2022-11-12T16:36:39.332Z,4.03
2022-11-12T16:39:24.722Z,3.60
2022-11-12T16:42:10.841Z,3.67
2022-11-12T16:44:55.911Z,3.65
2022-11-12T16:47:47.481Z,3.20
2022-11-12T16:50:32.823Z,3.83
2022-11-12T16:53:18.272Z,3.83
2022-11-12T16:56:03.633Z,2.97
2022-11-12T16:58:49.603Z,3.17
2022-11-12T17:04:29.210Z,3.50
2022-11-12T17:07:14.490Z,3.45
2022-11-12T17:09:59.950Z,3.47
2022-11-12T17:12:48.767Z,3.47
2022-11-12T17:15:34.120Z,3.42
2022-11-12T17:18:19.485Z,3.72
2022-11-12T17:21:12.070Z,3.63
2022-11-12T17:23:57.885Z,3.28
2022-11-12T17:26:42.982Z,3.65
2022-11-12T17:29:28.418Z,3.70
2022-11-12T17:32:13.731Z,3.63
2022-11-12T17:37:44.774Z,4.30
2022-11-12T17:40:30.710Z,4.05
2022-11-12T17:43:15.871Z,3.22
2022-11-12T17:46:02.385Z,3.13
2022-11-12T17:48:48.016Z,3.00
2022-11-12T17:51:33.402Z,3.08
2022-11-12T17:54:18.998Z,3.33
2022-11-12T17:57:04.424Z,3.10
2022-11-12T18:02:35.428Z,3.42
2022-11-12T18:05:20.649Z,2.97
2022-11-12T18:08:06.163Z,3.65
2022-11-12T18:10:52.530Z,3.10
2022-11-12T18:13:38.139Z,2.15
2022-11-12T18:16:26.426Z,2.97
2022-11-12T18:19:12.660Z,2.60
2022-11-12T18:21:58.103Z,2.42
2022-11-12T18:24:43.489Z,2.78
2022-11-12T18:27:28.755Z,2.22
2022-11-12T18:30:19.145Z,2.70
2022-11-12T18:33:05.715Z,2.65
2022-11-12T18:36:01.161Z,2.92
2022-11-12T18:38:49.948Z,3.08
2022-11-12T18:41:35.231Z,3.03
2022-11-12T18:44:25.727Z,3.00
2022-11-12T18:47:11.448Z,2.22
2022-11-12T18:49:56.482Z,2.67
2022-11-12T18:52:42.211Z,3.60
2022-11-12T18:55:27.689Z,2.65
2022-11-12T18:58:12.996Z,2.63
2022-11-12T19:01:10.282Z,3.17
2022-11-12T19:03:56.805Z,2.97
2022-11-12T19:06:42.506Z,2.88
2022-11-12T19:09:27.882Z,2.80
2022-11-12T19:12:12.991Z,3.50
2022-11-12T19:14:58.235Z,3.90
2022-11-12T19:17:43.626Z,3.33
2022-11-12T19:20:29.498Z,3.58
2022-11-12T19:23:15.246Z,3.00
2022-11-12T19:26:01.627Z,3.85
2022-11-12T19:28:46.902Z,3.10
2022-11-12T19:31:34.335Z,4.03
2022-11-12T19:34:19.638Z,3.00
2022-11-12T19:37:31.895Z,3.35
2022-11-12T19:40:11.479Z,3.53
2022-11-12T19:42:57.027Z,3.55
2022-11-12T19:45:42.536Z,3.50
2022-11-12T19:48:28.632Z,3.35
2022-11-12T19:51:14.256Z,3.85
2022-11-12T19:53:59.263Z,2.80
2022-11-12T19:56:44.334Z,3.93
2022-11-12T19:59:29.521Z,3.95
2022-11-12T20:02:14.802Z,4.47
2022-11-12T20:04:59.886Z,3.83
2022-11-12T20:07:48.625Z,3.78
2022-11-12T20:10:33.939Z,3.97
2022-11-12T20:13:19.114Z,3.50
2022-11-12T20:16:20.773Z,2.95
2022-11-12T20:19:09.770Z,3.67
2022-11-12T20:21:55.793Z,3.78
2022-11-12T20:24:40.928Z,3.78
2022-11-12T20:27:26.041Z,4.60
2022-11-12T20:30:11.458Z,4.80
2022-11-12T20:32:56.548Z,4.55
2022-11-12T20:35:41.966Z,4.30
2022-11-12T20:38:28.153Z,4.53
2022-11-12T20:41:16.442Z,3.35
2022-11-12T20:44:02.580Z,3.90
2022-11-12T20:46:47.662Z,4.25
2022-11-12T20:49:33.356Z,4.75
2022-11-12T20:52:18.673Z,4.78
2022-11-12T20:55:03.859Z,4.68
2022-11-12T20:57:49.074Z,4.32
2022-11-12T21:00:34.380Z,5.00
2022-11-12T21:03:19.553Z,4.53
2022-11-12T21:06:07.109Z,5.38
2022-11-12T21:08:52.730Z,4.75
2022-11-12T21:11:38.238Z,5.07
2022-11-12T21:14:23.493Z,5.20
2022-11-12T21:17:09.097Z,4.50
2022-11-12T21:19:54.045Z,4.50
2022-11-12T21:22:39.209Z,4.85
2022-11-12T21:25:24.721Z,3.92
2022-11-12T21:28:09.819Z,4.90
2022-11-12T21:31:01.803Z,4.93
2022-11-12T21:33:51.258Z,4.95
2022-11-12T21:36:36.370Z,4.68
2022-11-12T21:39:21.521Z,5.13
2022-11-12T21:42:07.028Z,4.97
2022-11-12T21:44:52.350Z,5.05
2022-11-12T21:47:38.006Z,4.57
2022-11-12T21:50:23.069Z,5.07
2022-11-12T21:53:08.230Z,4.35
2022-11-12T21:55:53.420Z,5.35
2022-11-12T21:58:39.257Z,4.93
2022-11-12T22:01:25.498Z,4.30
2022-11-12T22:07:03.524Z,5.00
2022-11-12T22:09:50.294Z,4.07
2022-11-12T22:12:38.935Z,4.63
2022-11-12T22:15:24.504Z,4.07
2022-11-12T22:18:09.663Z,4.25
2022-11-12T22:20:59.117Z,4.65
2022-11-12T22:23:44.458Z,5.22
2022-11-12T22:26:29.767Z,4.85
2022-11-12T22:29:14.945Z,4.68
2022-11-12T22:32:00.115Z,5.30
2022-11-12T22:34:49.311Z,5.00
2022-11-12T22:37:34.822Z,5.10
2022-11-12T22:40:20.063Z,5.25
2022-11-12T22:43:05.214Z,5.80
2022-11-12T22:45:50.154Z,5.75
2022-11-12T22:48:35.351Z,4.97
2022-11-12T22:51:23.371Z,5.88
2022-11-12T22:54:10.095Z,5.40
2022-11-12T22:56:55.184Z,4.97
2022-11-12T22:59:40.577Z,5.55
2022-11-12T23:02:25.812Z,4.85
2022-11-12T23:05:10.924Z,5.03
2022-11-12T23:07:56.036Z,5.45
2022-11-12T23:10:45.652Z,4.47
2022-11-12T23:13:31.864Z,4.82
2022-11-12T23:16:20.031Z,5.32
2022-11-12T23:19:04.992Z,5.35
2022-11-12T23:21:50.104Z,5.57
2022-11-12T23:24:35.116Z,5.53
2022-11-12T23:27:20.474Z,5.68
2022-11-12T23:30:05.862Z,4.95
2022-11-12T23:32:51.001Z,4.85
2022-11-12T23:35:36.281Z,4.80
2022-11-12T23:38:21.418Z,4.70
2022-11-12T23:41:07.636Z,4.90
2022-11-12T23:43:57.592Z,4.97
2022-11-12T23:46:42.909Z,5.25
2022-11-12T23:49:28.057Z,4.27
2022-11-12T23:52:13.106Z,4.27
2022-11-12T23:54:59.000Z,4.10
2022-11-12T23:57:44.242Z,5.45
